Time;durP1;ratioP1;P1;durP2;ratioP2;P2;SDS_P1;SDS_P2;PMS_P1;PMS_P2;Temp;Humidity;BMP_temperature;BMP_pressure;BME280_temperature;BME280_humidity;BME280_pressure;Samples;Min_cycle;Max_cycle;Signal;HPM_P1;HPM_P2
2023/02/08 00:00:23;;;;;;;23.50;7.90;;;;;;;;;;6125637;23;20178;-88
2023/02/08 00:03:28;;;;;;;27.97;8.93;;;;;;;;;;6125872;23;20169;-88
2023/02/08 00:06:35;;;;;;;25.73;8.30;;;;;;;;;;6127471;23;20636;-88
2023/02/08 00:09:41;;;;;;;20.43;7.23;;;;;;;;;;6127734;23;20169;-91
2023/02/08 00:12:47;;;;;;;18.03;6.93;;;;;;;;;;6126015;23;20209;-87
2023/02/08 00:15:54;;;;;;;18.80;7.53;;;;;;;;;;6127142;23;20205;-89
2023/02/08 00:19:00;;;;;;;24.20;8.30;;;;;;;;;;6131503;23;20188;-91
2023/02/08 00:22:07;;;;;;;20.47;7.17;;;;;;;;;;6143094;23;20169;-90
2023/02/08 00:25:12;;;;;;;26.80;9.23;;;;;;;;;;6143737;23;20173;-91
2023/02/08 00:28:19;;;;;;;23.13;9.13;;;;;;;;;;6141492;23;20169;-89
2023/02/08 00:31:24;;;;;;;27.33;9.40;;;;;;;;;;6144339;23;20190;-88
2023/02/08 00:34:29;;;;;;;25.33;9.53;;;;;;;;;;6143625;23;20240;-91
2023/02/08 00:37:36;;;;;;;25.47;9.53;;;;;;;;;;6143478;23;20173;-90
2023/02/08 00:40:42;;;;;;;26.07;9.37;;;;;;;;;;6142745;23;20177;-87
2023/02/08 00:43:47;;;;;;;28.93;9.17;;;;;;;;;;6141736;23;20168;-90
2023/02/08 00:46:53;;;;;;;26.27;8.97;;;;;;;;;;6142269;23;20205;-90
2023/02/08 00:50:02;;;;;;;25.97;8.97;;;;;;;;;;6141568;23;20169;-88
2023/02/08 00:53:09;;;;;;;23.60;9.70;;;;;;;;;;6141930;23;20276;-89
2023/02/08 00:56:15;;;;;;;24.10;8.90;;;;;;;;;;6142511;23;20603;-90
2023/02/08 00:59:20;;;;;;;28.00;9.57;;;;;;;;;;6140600;23;20165;-89
2023/02/08 01:02:28;;;;;;;22.87;9.17;;;;;;;;;;6141576;23;20150;-89
2023/02/08 01:05:33;;;;;;;24.63;9.50;;;;;;;;;;6142107;23;20190;-88
2023/02/08 01:08:41;;;;;;;24.63;9.77;;;;;;;;;;6141942;23;20218;-89
2023/02/08 01:15:20;;;;;;;27.50;9.07;;;;;;;;;;6142377;23;20178;-88
2023/02/08 01:18:25;;;;;;;27.30;9.30;;;;;;;;;;6153165;23;20606;-89
2023/02/08 01:21:31;;;;;;;25.60;9.50;;;;;;;;;;6170213;23;20616;-89
2023/02/08 01:24:38;;;;;;;28.97;9.93;;;;;;;;;;6174016;23;20208;-89
2023/02/08 01:27:43;;;;;;;30.77;10.03;;;;;;;;;;6171850;23;20168;-90
2023/02/08 01:30:49;;;;;;;26.10;9.47;;;;;;;;;;6173553;23;20177;-88
2023/02/08 01:33:54;;;;;;;27.03;10.00;;;;;;;;;;6172653;23;20176;-89
2023/02/08 01:37:00;;;;;;;23.27;9.17;;;;;;;;;;6171082;23;20228;-90
2023/02/08 01:40:08;;;;;;;24.13;9.50;;;;;;;;;;6172125;23;20177;-89
2023/02/08 01:43:20;;;;;;;31.10;9.67;;;;;;;;;;6172934;23;20220;-88
2023/02/08 01:46:26;;;;;;;35.67;9.57;;;;;;;;;;6172085;23;20243;-87
2023/02/08 01:49:34;;;;;;;30.57;10.60;;;;;;;;;;6172599;23;20168;-91
2023/02/08 01:52:39;;;;;;;24.53;9.10;;;;;;;;;;6171055;23;20337;-88
2023/02/08 01:55:48;;;;;;;32.77;10.03;;;;;;;;;;6173638;23;20148;-88
2023/02/08 01:58:56;;;;;;;16.57;6.87;;;;;;;;;;6172186;23;20165;-87
2023/02/08 02:02:04;;;;;;;18.80;6.23;;;;;;;;;;6171647;23;20168;-90
2023/02/08 02:05:09;;;;;;;25.13;7.23;;;;;;;;;;6173056;23;20502;-91
2023/02/08 02:08:14;;;;;;;24.47;7.73;;;;;;;;;;6171767;23;20212;-89
2023/02/08 02:11:22;;;;;;;30.57;10.07;;;;;;;;;;6171877;23;20200;-90
2023/02/08 02:14:31;;;;;;;23.43;9.30;;;;;;;;;;6172947;23;20168;-88
2023/02/08 02:17:36;;;;;;;25.13;9.20;;;;;;;;;;6171835;23;20169;-90
2023/02/08 02:20:58;;;;;;;25.27;9.33;;;;;;;;;;6172497;23;20228;-89
2023/02/08 02:24:28;;;;;;;25.47;9.40;;;;;;;;;;6171554;23;20625;-89
2023/02/08 02:27:41;;;;;;;25.33;10.00;;;;;;;;;;6172311;23;20338;-89
2023/02/08 02:31:01;;;;;;;23.83;8.90;;;;;;;;;;6171765;23;20204;-87
2023/02/08 02:34:11;;;;;;;30.83;9.40;;;;;;;;;;6146962;23;20188;-89
2023/02/08 02:37:22;;;;;;;26.23;9.27;;;;;;;;;;6172297;23;20188;-89
2023/02/08 02:40:34;;;;;;;25.47;9.87;;;;;;;;;;6171395;23;20256;-90
2023/02/08 02:43:42;;;;;;;29.47;10.20;;;;;;;;;;6172205;23;20168;-89
2023/02/08 02:46:50;;;;;;;27.30;10.23;;;;;;;;;;6170248;23;20214;-87
2023/02/08 02:50:00;;;;;;;26.67;10.30;;;;;;;;;;6169238;23;20484;-89
2023/02/08 02:53:08;;;;;;;30.83;11.03;;;;;;;;;;6169333;23;20187;-88
2023/02/08 02:56:16;;;;;;;23.83;9.83;;;;;;;;;;6169021;23;20523;-89
2023/02/08 02:59:22;;;;;;;32.40;10.60;;;;;;;;;;6170880;23;20157;-89
2023/02/08 03:03:00;;;;;;;28.50;10.10;;;;;;;;;;6170537;23;20176;-88
2023/02/08 03:06:08;;;;;;;29.90;10.73;;;;;;;;;;6170684;23;20176;-89
2023/02/08 03:09:34;;;;;;;29.17;10.80;;;;;;;;;;6170391;23;20164;-88
2023/02/08 03:13:06;;;;;;;28.97;10.63;;;;;;;;;;6168564;23;20228;-89
2023/02/08 03:16:16;;;;;;;29.10;10.60;;;;;;;;;;6171192;23;20243;-90
2023/02/08 03:19:33;;;;;;;28.53;10.07;;;;;;;;;;6171516;23;20768;-88
2023/02/08 03:22:44;;;;;;;31.63;11.07;;;;;;;;;;6170899;23;20177;-88
2023/02/08 03:25:51;;;;;;;28.67;10.63;;;;;;;;;;6170913;23;20153;-90
2023/02/08 03:28:59;;;;;;;33.17;10.80;;;;;;;;;;6170130;23;20231;-89
2023/02/08 03:32:08;;;;;;;28.77;11.20;;;;;;;;;;6174105;23;20192;-88
2023/02/08 03:35:16;;;;;;;28.67;11.00;;;;;;;;;;6173838;23;20233;-90
2023/02/08 03:38:26;;;;;;;29.60;10.27;;;;;;;;;;6172311;23;20188;-89
2023/02/08 03:41:33;;;;;;;31.70;10.60;;;;;;;;;;6173472;23;20256;-89
2023/02/08 03:44:42;;;;;;;27.80;10.47;;;;;;;;;;6171829;23;20245;-89
2023/02/08 03:47:48;;;;;;;29.87;10.70;;;;;;;;;;6173621;23;20229;-90
2023/02/08 03:50:54;;;;;;;28.37;11.23;;;;;;;;;;6171975;23;20675;-90
2023/02/08 03:54:03;;;;;;;26.33;10.10;;;;;;;;;;6172410;23;20249;-88
2023/02/08 03:57:16;;;;;;;27.27;10.87;;;;;;;;;;6172127;23;20172;-89
2023/02/08 04:00:21;;;;;;;33.67;11.60;;;;;;;;;;6172235;23;20263;-90
2023/02/08 04:03:27;;;;;;;29.37;10.90;;;;;;;;;;6173208;23;20177;-89
2023/02/08 04:06:33;;;;;;;32.40;11.37;;;;;;;;;;6171032;23;20168;-88
2023/02/08 04:09:40;;;;;;;28.10;10.20;;;;;;;;;;6171784;23;20172;-88
2023/02/08 04:12:46;;;;;;;28.57;10.20;;;;;;;;;;6172261;23;20200;-89
2023/02/08 04:15:51;;;;;;;29.07;10.70;;;;;;;;;;6172848;23;20169;-88
2023/02/08 04:19:01;;;;;;;29.63;11.23;;;;;;;;;;6172581;23;20188;-91
2023/02/08 04:22:06;;;;;;;29.10;10.90;;;;;;;;;;6172020;23;20172;-89
2023/02/08 04:25:13;;;;;;;30.43;10.77;;;;;;;;;;6171870;23;20156;-92
2023/02/08 04:28:18;;;;;;;26.07;10.27;;;;;;;;;;6172242;23;20193;-88
2023/02/08 04:31:23;;;;;;;30.33;10.60;;;;;;;;;;6172242;23;20193;-90
2023/02/08 04:34:29;;;;;;;36.53;11.83;;;;;;;;;;6173165;23;20161;-86
2023/02/08 04:37:34;;;;;;;31.23;12.23;;;;;;;;;;6172586;23;20256;-86
2023/02/08 04:40:41;;;;;;;30.13;10.60;;;;;;;;;;6171432;23;20177;-87
2023/02/08 04:43:46;;;;;;;34.67;11.20;;;;;;;;;;6172259;23;20156;-87
2023/02/08 04:46:52;;;;;;;30.07;11.40;;;;;;;;;;6172676;23;20209;-88
2023/02/08 04:49:57;;;;;;;31.73;10.87;;;;;;;;;;6172306;23;20507;-88
2023/02/08 04:53:03;;;;;;;32.67;11.13;;;;;;;;;;6172912;23;20183;-88
2023/02/08 04:56:10;;;;;;;30.43;11.63;;;;;;;;;;6174235;23;20173;-88
2023/02/08 04:59:17;;;;;;;32.43;11.73;;;;;;;;;;6175263;23;20153;-89
2023/02/08 05:02:22;;;;;;;34.00;12.63;;;;;;;;;;6155960;23;20231;-89
2023/02/08 05:05:28;;;;;;;33.70;11.43;;;;;;;;;;6173423;23;20239;-88
2023/02/08 05:08:33;;;;;;;33.47;12.53;;;;;;;;;;6173315;23;20204;-88
2023/02/08 05:11:41;;;;;;;35.40;12.83;;;;;;;;;;6172307;23;20608;-90
2023/02/08 05:14:46;;;;;;;31.53;12.10;;;;;;;;;;6172275;23;20217;-89
2023/02/08 05:17:52;;;;;;;39.57;12.53;;;;;;;;;;6170992;23;20752;-90
2023/02/08 05:20:59;;;;;;;36.10;11.87;;;;;;;;;;6171806;23;20196;-89
2023/02/08 05:24:04;;;;;;;30.37;10.83;;;;;;;;;;6171915;23;20172;-88
2023/02/08 05:27:11;;;;;;;42.57;13.63;;;;;;;;;;6170818;23;20168;-85
2023/02/08 05:30:20;;;;;;;34.17;12.03;;;;;;;;;;6171702;23;20172;-90
2023/02/08 05:33:25;;;;;;;33.37;11.70;;;;;;;;;;6170685;23;20203;-89
2023/02/08 05:36:31;;;;;;;30.13;10.47;;;;;;;;;;6170908;23;20169;-89
2023/02/08 05:39:36;;;;;;;49.73;12.10;;;;;;;;;;6172664;23;20153;-89
2023/02/08 05:42:44;;;;;;;35.37;12.07;;;;;;;;;;6173362;23;20157;-87
2023/02/08 05:45:51;;;;;;;46.10;13.53;;;;;;;;;;6174054;23;20188;-89
2023/02/08 05:48:57;;;;;;;37.60;12.97;;;;;;;;;;6172530;23;20244;-90
2023/02/08 05:52:04;;;;;;;40.23;14.13;;;;;;;;;;6172676;23;20180;-90
2023/02/08 05:55:10;;;;;;;42.27;13.60;;;;;;;;;;6173452;23;20156;-88
2023/02/08 05:58:17;;;;;;;41.33;14.00;;;;;;;;;;6171034;23;20172;-88
2023/02/08 06:01:25;;;;;;;37.07;13.37;;;;;;;;;;6172275;23;20198;-88
2023/02/08 06:04:30;;;;;;;39.43;12.37;;;;;;;;;;6174059;23;20569;-88
2023/02/08 06:07:36;;;;;;;36.53;12.13;;;;;;;;;;6172931;23;20156;-88
2023/02/08 06:10:42;;;;;;;34.73;12.60;;;;;;;;;;6172255;23;20164;-87
2023/02/08 06:13:55;;;;;;;32.97;13.00;;;;;;;;;;6171627;23;20183;-88
2023/02/08 06:17:00;;;;;;;28.63;10.47;;;;;;;;;;6173103;23;20153;-89
2023/02/08 06:20:13;;;;;;;37.10;14.00;;;;;;;;;;6173858;23;20236;-89
2023/02/08 06:23:18;;;;;;;37.07;13.40;;;;;;;;;;6173018;23;20240;-88
2023/02/08 06:26:27;;;;;;;41.60;13.17;;;;;;;;;;6170598;23;20204;-87
2023/02/08 06:29:33;;;;;;;36.70;12.57;;;;;;;;;;6171694;23;20216;-89
2023/02/08 06:32:39;;;;;;;39.50;12.40;;;;;;;;;;6170466;23;20231;-88
2023/02/08 06:35:47;;;;;;;38.03;13.37;;;;;;;;;;6171562;23;20173;-87
2023/02/08 06:38:52;;;;;;;37.83;12.87;;;;;;;;;;6172366;23;20196;-87
2023/02/08 06:41:58;;;;;;;46.07;13.60;;;;;;;;;;6172210;23;20172;-87
2023/02/08 06:45:11;;;;;;;41.60;15.17;;;;;;;;;;6173680;23;20172;-87
2023/02/08 06:48:16;;;;;;;37.67;14.20;;;;;;;;;;6172362;23;20169;-88
2023/02/08 06:54:40;;;;;;;41.70;14.83;;;;;;;;;;6172504;23;20249;-89
2023/02/08 06:57:46;;;;;;;40.47;14.90;;;;;;;;;;6173842;23;20172;-90
2023/02/08 07:00:54;;;;;;;45.00;14.83;;;;;;;;;;6169926;23;20167;-91
2023/02/08 07:03:59;;;;;;;38.73;15.33;;;;;;;;;;6172082;23;20467;-89
2023/02/08 07:07:05;;;;;;;47.43;16.53;;;;;;;;;;6171015;23;20256;-91
2023/02/08 07:10:11;;;;;;;48.47;16.07;;;;;;;;;;6171045;23;20168;-88
2023/02/08 07:13:42;;;;;;;66.20;18.63;;;;;;;;;;6169497;23;20287;-89
2023/02/08 07:16:49;;;;;;;46.57;16.83;;;;;;;;;;6169811;23;20607;-90
2023/02/08 07:19:59;;;;;;;46.60;17.07;;;;;;;;;;6169756;23;20172;-89
2023/02/08 07:23:04;;;;;;;53.50;19.40;;;;;;;;;;6173870;23;20168;-89
2023/02/08 07:26:13;;;;;;;47.37;15.90;;;;;;;;;;6171569;23;20168;-87
2023/02/08 07:29:18;;;;;;;52.67;16.57;;;;;;;;;;6171898;23;20212;-89
2023/02/08 07:32:27;;;;;;;36.63;13.80;;;;;;;;;;6172988;23;20200;-88
2023/02/08 07:35:33;;;;;;;40.67;13.40;;;;;;;;;;6173682;23;20252;-89
2023/02/08 07:38:39;;;;;;;32.47;11.17;;;;;;;;;;6175695;23;20172;-89
2023/02/08 07:41:45;;;;;;;24.53;9.20;;;;;;;;;;6174170;23;20189;-88
2023/02/08 07:44:50;;;;;;;36.10;13.00;;;;;;;;;;6174008;23;20250;-87
2023/02/08 07:47:57;;;;;;;42.87;12.73;;;;;;;;;;6172883;23;20216;-88
2023/02/08 07:51:03;;;;;;;38.97;12.60;;;;;;;;;;6171933;23;20165;-90
2023/02/08 07:54:08;;;;;;;37.07;11.60;;;;;;;;;;6175278;23;20208;-89
2023/02/08 07:57:19;;;;;;;20.40;7.43;;;;;;;;;;6171273;23;20212;-86
2023/02/08 08:00:26;;;;;;;27.53;8.87;;;;;;;;;;6172354;23;20176;-87
2023/02/08 08:03:35;;;;;;;32.60;10.43;;;;;;;;;;6173195;23;20172;-88
2023/02/08 08:06:40;;;;;;;43.80;11.97;;;;;;;;;;6173985;23;20168;-88
2023/02/08 08:09:45;;;;;;;56.93;15.77;;;;;;;;;;6173773;23;20212;-89
2023/02/08 08:12:51;;;;;;;28.20;9.80;;;;;;;;;;6173433;23;20172;-88
2023/02/08 08:15:57;;;;;;;27.33;8.83;;;;;;;;;;6173968;23;20188;-90
2023/02/08 08:19:30;;;;;;;33.23;12.10;;;;;;;;;;6172974;23;20235;-89
2023/02/08 08:22:37;;;;;;;42.63;11.60;;;;;;;;;;6173529;23;20240;-90
2023/02/08 08:25:43;;;;;;;27.03;9.50;;;;;;;;;;6173499;23;20628;-89
2023/02/08 08:28:48;;;;;;;29.97;10.83;;;;;;;;;;6173770;23;20169;-87
2023/02/08 08:31:54;;;;;;;35.37;10.93;;;;;;;;;;6174373;23;20172;-87
2023/02/08 08:35:00;;;;;;;29.07;10.10;;;;;;;;;;6176035;23;20199;-89
2023/02/08 08:38:08;;;;;;;30.00;10.40;;;;;;;;;;6174906;23;20224;-87
2023/02/08 08:41:15;;;;;;;34.77;10.43;;;;;;;;;;6173482;23;20212;-87
2023/02/08 08:44:21;;;;;;;28.20;10.23;;;;;;;;;;6174274;23;20172;-90
2023/02/08 08:47:27;;;;;;;29.13;10.33;;;;;;;;;;6173462;23;20172;-89
2023/02/08 08:50:33;;;;;;;33.73;11.87;;;;;;;;;;6174517;23;20160;-88
2023/02/08 08:53:40;;;;;;;35.83;11.27;;;;;;;;;;6176363;23;20245;-88
2023/02/08 08:56:46;;;;;;;30.40;9.47;;;;;;;;;;6177369;23;20168;-88
2023/02/08 08:59:52;;;;;;;29.33;9.63;;;;;;;;;;6175338;23;20184;-88
2023/02/08 09:02:57;;;;;;;44.63;16.53;;;;;;;;;;6174524;23;20246;-89
2023/02/08 09:06:03;;;;;;;33.77;11.67;;;;;;;;;;6174638;23;20163;-88
2023/02/08 09:09:10;;;;;;;31.57;11.40;;;;;;;;;;6176446;23;20216;-89
2023/02/08 09:12:15;;;;;;;31.13;11.20;;;;;;;;;;6175922;23;20208;-89
2023/02/08 09:15:21;;;;;;;27.97;10.30;;;;;;;;;;6174390;23;20195;-88
2023/02/08 09:18:26;;;;;;;44.47;15.20;;;;;;;;;;6174245;23;20192;-91
2023/02/08 09:21:32;;;;;;;30.73;9.90;;;;;;;;;;6175524;23;20213;-90
2023/02/08 09:24:40;;;;;;;41.77;14.40;;;;;;;;;;6175179;23;20176;-88
2023/02/08 09:27:46;;;;;;;31.43;10.10;;;;;;;;;;6175801;23;20220;-88
2023/02/08 09:30:52;;;;;;;35.13;11.30;;;;;;;;;;6176329;23;20165;-89
2023/02/08 09:33:59;;;;;;;41.40;11.20;;;;;;;;;;6176496;23;20223;-89
2023/02/08 09:37:05;;;;;;;38.67;9.80;;;;;;;;;;6174411;23;20217;-87
2023/02/08 09:40:22;;;;;;;31.60;10.90;;;;;;;;;;6174645;23;20168;-89
2023/02/08 09:43:32;;;;;;;30.40;10.03;;;;;;;;;;6174802;23;20189;-89
2023/02/08 09:46:39;;;;;;;34.57;10.90;;;;;;;;;;6174301;23;20547;-90
2023/02/08 09:49:52;;;;;;;24.37;10.00;;;;;;;;;;6174723;23;20309;-88
2023/02/08 09:53:01;;;;;;;29.03;9.03;;;;;;;;;;6173420;23;20245;-87
2023/02/08 09:56:13;;;;;;;29.93;9.70;;;;;;;;;;6175288;23;20180;-87
2023/02/08 09:59:23;;;;;;;23.93;9.10;;;;;;;;;;6174023;23;20169;-89
2023/02/08 10:02:30;;;;;;;27.80;9.30;;;;;;;;;;6173687;23;20216;-89
2023/02/08 10:05:35;;;;;;;27.20;9.70;;;;;;;;;;6171874;23;20184;-89
2023/02/08 10:08:41;;;;;;;24.83;8.97;;;;;;;;;;6172264;23;20199;-89
2023/02/08 10:11:56;;;;;;;32.17;10.43;;;;;;;;;;6172840;23;20217;-89
2023/02/08 10:15:06;;;;;;;34.03;8.90;;;;;;;;;;6170798;23;20207;-89
2023/02/08 10:18:19;;;;;;;23.07;9.20;;;;;;;;;;6169983;23;20180;-88
2023/02/08 10:21:32;;;;;;;26.67;8.70;;;;;;;;;;6171286;23;20161;-89
2023/02/08 10:24:44;;;;;;;22.60;9.03;;;;;;;;;;6170641;23;20235;-87
2023/02/08 10:27:56;;;;;;;29.00;8.47;;;;;;;;;;6171570;23;20237;-90
2023/02/08 10:31:06;;;;;;;24.67;10.40;;;;;;;;;;6172590;23;20164;-88
2023/02/08 10:34:19;;;;;;;33.37;8.80;;;;;;;;;;6173393;23;20189;-88
2023/02/08 10:37:28;;;;;;;30.83;8.87;;;;;;;;;;6173347;23;20255;-86
2023/02/08 10:40:36;;;;;;;21.50;8.27;;;;;;;;;;6172531;23;20243;-88
2023/02/08 10:43:45;;;;;;;27.23;8.57;;;;;;;;;;6171419;23;20164;-88
2023/02/08 10:46:53;;;;;;;21.83;8.47;;;;;;;;;;6170484;23;20165;-88
2023/02/08 10:50:02;;;;;;;22.13;7.97;;;;;;;;;;6171416;23;20172;-88
2023/02/08 10:53:07;;;;;;;29.40;9.10;;;;;;;;;;6172543;23;20173;-89
2023/02/08 10:56:20;;;;;;;24.30;7.73;;;;;;;;;;6171959;23;20177;-92
2023/02/08 10:59:28;;;;;;;20.97;8.00;;;;;;;;;;6171047;23;20176;-89
2023/02/08 11:02:35;;;;;;;22.57;7.63;;;;;;;;;;6171160;23;20164;-89
2023/02/08 11:05:41;;;;;;;24.67;8.33;;;;;;;;;;6171418;23;20177;-90
2023/02/08 11:08:55;;;;;;;19.03;8.00;;;;;;;;;;6172232;23;20172;-89
2023/02/08 11:12:02;;;;;;;28.80;8.57;;;;;;;;;;6171907;23;20612;-89
2023/02/08 11:15:21;;;;;;;21.83;7.70;;;;;;;;;;6171843;23;20602;-88
2023/02/08 11:18:29;;;;;;;20.90;8.13;;;;;;;;;;6167773;23;20283;-89
2023/02/08 11:21:36;;;;;;;24.50;8.73;;;;;;;;;;6171889;23;20168;-87
2023/02/08 11:24:49;;;;;;;23.17;9.10;;;;;;;;;;6172138;23;20171;-88
2023/02/08 11:27:54;;;;;;;18.93;7.83;;;;;;;;;;6171167;23;20172;-87
2023/02/08 11:31:04;;;;;;;20.83;8.30;;;;;;;;;;6171982;23;20211;-90
2023/02/08 11:34:11;;;;;;;22.03;7.83;;;;;;;;;;6171857;23;20192;-87
2023/02/08 11:37:24;;;;;;;23.50;8.10;;;;;;;;;;6174077;23;20172;-90
2023/02/08 11:40:32;;;;;;;23.83;8.57;;;;;;;;;;6174827;23;20175;-90
2023/02/08 11:43:38;;;;;;;20.40;7.60;;;;;;;;;;6174004;23;20180;-89
2023/02/08 11:46:48;;;;;;;13.93;5.97;;;;;;;;;;6173401;23;20181;-90
2023/02/08 11:49:55;;;;;;;17.37;6.70;;;;;;;;;;6172692;23;20164;-90
2023/02/08 11:53:01;;;;;;;18.47;7.00;;;;;;;;;;6173034;23;20160;-89
2023/02/08 11:56:08;;;;;;;25.83;7.50;;;;;;;;;;6172852;23;20219;-90
2023/02/08 11:59:20;;;;;;;19.23;7.50;;;;;;;;;;6173841;23;20168;-89
2023/02/08 12:02:41;;;;;;;23.73;7.47;;;;;;;;;;6171767;23;20212;-92
2023/02/08 12:05:50;;;;;;;16.93;6.67;;;;;;;;;;6171776;23;20176;-90
2023/02/08 12:09:00;;;;;;;19.50;7.40;;;;;;;;;;6172850;23;20164;-91
2023/02/08 12:12:17;;;;;;;18.30;7.17;;;;;;;;;;6174568;23;20227;-88
2023/02/08 12:15:26;;;;;;;15.50;6.07;;;;;;;;;;6176331;23;20238;-89
2023/02/08 12:18:43;;;;;;;18.57;7.07;;;;;;;;;;6169828;23;20224;-90
2023/02/08 12:21:50;;;;;;;21.87;6.93;;;;;;;;;;6173175;23;20152;-91
2023/02/08 12:25:01;;;;;;;20.37;5.97;;;;;;;;;;6173895;23;20169;-89
2023/02/08 12:28:08;;;;;;;16.17;6.17;;;;;;;;;;6174042;23;20170;-88
2023/02/08 12:31:20;;;;;;;15.90;5.07;;;;;;;;;;6176588;23;20168;-87
2023/02/08 12:34:37;;;;;;;13.60;5.07;;;;;;;;;;6173082;23;20192;-90
2023/02/08 12:41:24;;;;;;;16.27;6.20;;;;;;;;;;6096873;23;20165;-89
2023/02/08 12:44:37;;;;;;;18.83;7.60;;;;;;;;;;6099738;23;20306;-90
2023/02/08 12:51:15;;;;;;;15.13;6.40;;;;;;;;;;6174141;23;20248;-90
2023/02/08 12:54:27;;;;;;;23.20;9.10;;;;;;;;;;6173422;23;20165;-90
2023/02/08 12:57:33;;;;;;;15.93;7.30;;;;;;;;;;6171217;23;20188;-90
2023/02/08 13:00:41;;;;;;;14.47;5.33;;;;;;;;;;6171148;23;20173;-89
2023/02/08 13:03:49;;;;;;;15.93;5.93;;;;;;;;;;6172885;23;20220;-89
2023/02/08 13:07:10;;;;;;;17.90;5.90;;;;;;;;;;6171269;23;20171;-90
2023/02/08 13:10:25;;;;;;;11.30;5.37;;;;;;;;;;6171944;23;20239;-88
2023/02/08 13:13:35;;;;;;;14.97;5.37;;;;;;;;;;6171638;23;20173;-90
2023/02/08 13:16:44;;;;;;;16.80;4.90;;;;;;;;;;6171452;23;20172;-89
2023/02/08 13:19:57;;;;;;;17.50;7.60;;;;;;;;;;6169866;23;20192;-87
2023/02/08 13:23:04;;;;;;;10.00;3.43;;;;;;;;;;6169896;23;20247;-89
2023/02/08 13:26:14;;;;;;;11.40;4.10;;;;;;;;;;6169528;23;20167;-91
2023/02/08 13:29:23;;;;;;;11.93;4.57;;;;;;;;;;6171144;23;20177;-89
2023/02/08 13:32:30;;;;;;;14.63;5.50;;;;;;;;;;6171705;23;20168;-88
2023/02/08 13:35:37;;;;;;;14.50;4.17;;;;;;;;;;6171122;23;20200;-90
2023/02/08 13:38:48;;;;;;;14.27;6.17;;;;;;;;;;6168700;23;20170;-87
2023/02/08 13:41:56;;;;;;;13.03;4.60;;;;;;;;;;6169552;23;20165;-89
2023/02/08 13:45:03;;;;;;;14.13;4.40;;;;;;;;;;6171233;23;20176;-89
2023/02/08 13:48:10;;;;;;;17.97;4.30;;;;;;;;;;6171370;23;20248;-89
2023/02/08 13:51:43;;;;;;;11.03;3.63;;;;;;;;;;6171865;23;20208;-89
2023/02/08 13:55:08;;;;;;;12.17;4.40;;;;;;;;;;6171446;23;20262;-87
2023/02/08 13:58:34;;;;;;;12.40;4.33;;;;;;;;;;6171039;23;20193;-91
2023/02/08 14:02:03;;;;;;;14.00;5.67;;;;;;;;;;6157329;23;20212;-90
2023/02/08 14:05:27;;;;;;;7.73;3.67;;;;;;;;;;6171865;23;20240;-88
2023/02/08 14:08:35;;;;;;;12.67;4.97;;;;;;;;;;6171609;23;20165;-87
2023/02/08 14:11:44;;;;;;;11.80;4.80;;;;;;;;;;6171296;23;20168;-88
2023/02/08 14:15:04;;;;;;;12.13;3.60;;;;;;;;;;6172878;23;20636;-91
2023/02/08 14:18:36;;;;;;;7.93;3.00;;;;;;;;;;6169802;23;20188;-90
2023/02/08 14:21:45;;;;;;;9.30;3.70;;;;;;;;;;6172858;23;20240;-89
2023/02/08 14:25:00;;;;;;;7.93;3.40;;;;;;;;;;6170069;23;20172;-88
2023/02/08 14:28:07;;;;;;;7.07;3.40;;;;;;;;;;6169309;23;20173;-89
2023/02/08 14:31:13;;;;;;;7.20;3.17;;;;;;;;;;6170855;23;20193;-86
2023/02/08 14:34:24;;;;;;;8.57;3.27;;;;;;;;;;6169825;23;20612;-90
2023/02/08 14:40:55;;;;;;;5.53;2.20;;;;;;;;;;6172695;23;20164;-89
2023/02/08 14:44:21;;;;;;;9.47;4.03;;;;;;;;;;6172104;23;20155;-90
2023/02/08 14:47:45;;;;;;;10.70;4.57;;;;;;;;;;6169623;23;20177;-88
2023/02/08 14:51:01;;;;;;;11.63;4.17;;;;;;;;;;6172651;23;20232;-90
2023/02/08 14:54:16;;;;;;;9.27;3.47;;;;;;;;;;6169223;23;20188;-89
2023/02/08 14:57:26;;;;;;;8.67;3.50;;;;;;;;;;6169261;23;20212;-89
2023/02/08 15:00:34;;;;;;;10.43;3.23;;;;;;;;;;6169423;23;20169;-89
2023/02/08 15:03:40;;;;;;;5.73;2.47;;;;;;;;;;6170522;23;20172;-85
2023/02/08 15:06:53;;;;;;;7.97;2.67;;;;;;;;;;6170335;23;20197;-90
2023/02/08 15:10:02;;;;;;;9.33;3.47;;;;;;;;;;6170133;23;20171;-88
2023/02/08 15:13:19;;;;;;;8.33;3.33;;;;;;;;;;6169410;23;20173;-88
2023/02/08 15:16:25;;;;;;;3.83;2.20;;;;;;;;;;6171206;23;20289;-91
2023/02/08 15:19:32;;;;;;;11.70;3.87;;;;;;;;;;6170535;23;20476;-88
2023/02/08 15:22:40;;;;;;;8.30;3.07;;;;;;;;;;6169696;23;20167;-91
2023/02/08 15:25:54;;;;;;;7.17;3.47;;;;;;;;;;6170810;23;20168;-89
2023/02/08 15:29:01;;;;;;;8.27;3.20;;;;;;;;;;6168706;23;20240;-88
2023/02/08 15:32:11;;;;;;;9.20;3.37;;;;;;;;;;6169589;23;20176;-91
2023/02/08 15:35:19;;;;;;;9.07;2.87;;;;;;;;;;6170348;23;20201;-89
2023/02/08 15:42:00;;;;;;;9.33;3.40;;;;;;;;;;6171299;23;20531;-91
2023/02/08 15:45:05;;;;;;;9.43;3.87;;;;;;;;;;6170771;23;20168;-89
2023/02/08 15:48:13;;;;;;;9.70;3.37;;;;;;;;;;6169473;23;20180;-88
2023/02/08 15:51:21;;;;;;;14.93;6.17;;;;;;;;;;6169667;23;20192;-90
2023/02/08 15:54:27;;;;;;;10.43;4.30;;;;;;;;;;6170887;23;20189;-87
2023/02/08 15:57:37;;;;;;;10.20;3.50;;;;;;;;;;6172426;23;20172;-88
2023/02/08 16:00:44;;;;;;;8.70;3.90;;;;;;;;;;6171073;23;20859;-87
2023/02/08 16:03:51;;;;;;;14.77;4.97;;;;;;;;;;6170548;23;20212;-89
2023/02/08 16:06:59;;;;;;;16.40;6.60;;;;;;;;;;6170134;23;20176;-88
2023/02/08 16:10:07;;;;;;;273.63;55.03;;;;;;;;;;6170290;23;20486;-90
2023/02/08 16:13:19;;;;;;;177.53;44.37;;;;;;;;;;6172279;23;20264;-91
2023/02/08 16:16:25;;;;;;;18.73;5.20;;;;;;;;;;6169864;23;20296;-88
2023/02/08 16:19:33;;;;;;;7.80;3.60;;;;;;;;;;6152930;23;20242;-88
2023/02/08 16:22:38;;;;;;;9.77;3.63;;;;;;;;;;6170622;23;20183;-88
2023/02/08 16:25:47;;;;;;;10.03;3.60;;;;;;;;;;6171203;23;20252;-88
2023/02/08 16:28:56;;;;;;;7.77;3.37;;;;;;;;;;6172968;23;20204;-90
2023/02/08 16:32:06;;;;;;;10.27;4.30;;;;;;;;;;6172992;23;20185;-90
2023/02/08 16:35:15;;;;;;;11.93;4.20;;;;;;;;;;6173003;23;20164;-88
2023/02/08 16:38:22;;;;;;;10.00;4.13;;;;;;;;;;6172234;23;20169;-88
2023/02/08 16:41:41;;;;;;;11.07;3.27;;;;;;;;;;6170819;23;20222;-90
2023/02/08 16:45:00;;;;;;;10.00;3.50;;;;;;;;;;6169306;23;20165;-89
2023/02/08 16:48:26;;;;;;;8.40;2.87;;;;;;;;;;6166830;23;20188;-88
2023/02/08 16:51:34;;;;;;;9.13;3.77;;;;;;;;;;6169573;23;20258;-87
2023/02/08 16:54:39;;;;;;;7.43;3.43;;;;;;;;;;6171964;23;20200;-89
2023/02/08 16:57:46;;;;;;;8.20;3.33;;;;;;;;;;6170837;23;20184;-88
2023/02/08 17:00:56;;;;;;;9.07;3.47;;;;;;;;;;6171687;23;20215;-88
2023/02/08 17:04:02;;;;;;;6.27;3.03;;;;;;;;;;6168928;23;20173;-89
2023/02/08 17:07:10;;;;;;;13.63;6.00;;;;;;;;;;6166440;23;20180;-87
2023/02/08 17:10:18;;;;;;;12.97;5.37;;;;;;;;;;6167152;23;20612;-89
2023/02/08 17:13:45;;;;;;;8.97;3.63;;;;;;;;;;6166486;23;20176;-88
2023/02/08 17:16:52;;;;;;;10.97;4.00;;;;;;;;;;6166192;23;20196;-85
2023/02/08 17:20:07;;;;;;;9.53;4.03;;;;;;;;;;6166744;23;20181;-88
2023/02/08 17:23:14;;;;;;;10.63;4.90;;;;;;;;;;6167356;23;20234;-87
2023/02/08 17:26:22;;;;;;;14.63;3.97;;;;;;;;;;6169239;23;20255;-86
2023/02/08 17:29:32;;;;;;;12.77;5.57;;;;;;;;;;6173393;23;20172;-89
2023/02/08 17:32:53;;;;;;;11.13;4.23;;;;;;;;;;6170812;23;20221;-88
2023/02/08 17:35:59;;;;;;;9.13;3.80;;;;;;;;;;6171087;23;20246;-88
2023/02/08 17:39:05;;;;;;;12.47;3.90;;;;;;;;;;6168146;23;20216;-88
2023/02/08 17:42:11;;;;;;;9.07;3.70;;;;;;;;;;6171038;23;20635;-89
2023/02/08 17:45:16;;;;;;;6.33;3.30;;;;;;;;;;6173239;23;20624;-90
2023/02/08 17:48:22;;;;;;;13.77;4.07;;;;;;;;;;6169395;23;20196;-91
2023/02/08 17:51:29;;;;;;;27.77;6.53;;;;;;;;;;6170492;23;20669;-87
2023/02/08 17:54:35;;;;;;;18.27;4.33;;;;;;;;;;6169921;23;20615;-88
2023/02/08 17:57:41;;;;;;;11.00;4.30;;;;;;;;;;6168351;23;20711;-88
2023/02/08 18:00:47;;;;;;;16.93;7.47;;;;;;;;;;6167866;23;20220;-88
2023/02/08 18:03:55;;;;;;;18.77;7.03;;;;;;;;;;6168610;23;20176;-88
2023/02/08 18:07:00;;;;;;;14.87;7.33;;;;;;;;;;6168803;23;20164;-87
2023/02/08 18:10:06;;;;;;;9.13;3.53;;;;;;;;;;6168626;23;20640;-88
2023/02/08 18:13:11;;;;;;;9.60;4.40;;;;;;;;;;6173702;23;20208;-88
2023/02/08 18:16:17;;;;;;;8.67;4.03;;;;;;;;;;6168640;23;20195;-87
2023/02/08 18:19:27;;;;;;;9.57;3.80;;;;;;;;;;6169289;23;20172;-88
2023/02/08 18:22:33;;;;;;;11.83;4.00;;;;;;;;;;6168212;23;20161;-89
2023/02/08 18:25:38;;;;;;;10.27;3.80;;;;;;;;;;6168782;23;20219;-89
2023/02/08 18:28:43;;;;;;;15.50;5.83;;;;;;;;;;6168417;23;20564;-90
2023/02/08 18:31:48;;;;;;;13.13;4.37;;;;;;;;;;6168802;23;20212;-90
2023/02/08 18:34:55;;;;;;;13.67;5.30;;;;;;;;;;6167747;23;20174;-89
2023/02/08 18:38:00;;;;;;;14.23;4.90;;;;;;;;;;6165885;23;20184;-88
2023/02/08 18:41:08;;;;;;;15.97;5.60;;;;;;;;;;6166607;23;20168;-88
2023/02/08 18:44:13;;;;;;;19.93;6.90;;;;;;;;;;6165931;23;20213;-90
2023/02/08 18:47:18;;;;;;;15.47;5.53;;;;;;;;;;6167857;23;20216;-88
2023/02/08 18:50:25;;;;;;;48.20;14.57;;;;;;;;;;6165723;23;20204;-89